Lossiemouth, United Kingdom

4:07 PM BST on April 28, 2015 (GMT +0100)
Lossiemouth Air Base | | Change Station
CLOSE
Current Station
Airport
Location: Lossiemouth,
Elevation: 43 ft
Nearby Weather Stations

Elev 43 ft 57.71 °N, 3.32 °W | Updated 17 minutes ago

Scattered Clouds
Scattered Clouds
46 °F
Feels Like 41 °F
N
13
Wind Variable Wind from SW

Today
High -- | Low -- °F
--% Chance of Precip.
Yesterday
High -- | Low -- °F
Precip. -- in
5:30 AM 8:52 PM
Waxing Gibbous, 74% visible
Pressure 29.68 in
Visibility 6.2 miles
Clouds Scattered Clouds 3300 ft
Scattered Clouds 22000 ft
Windchill 41 °F
Dew Point 34 °F
Humidity 62%
Rainfall 0.00 in
Snow Depth Not available.
UV 4 out of 12
Pollen Not available.
Air Quality Not available.
Flu Activity Not available.
METAR EGQS 281450Z 23011KT 9999 SCT033CB SCT220 08/01 Q1005 RESHGS BLU TEMPO 7000 SHGS SCT015CB WHT

More Conditions Fewer Conditions

Pressure 29.68 in
Visibility 6.2 miles
Clouds Scattered Clouds 3300 ft
Scattered Clouds 22000 ft
Windchill 41 °F
Dew Point 34 °F
Humidity 62%
Rainfall 0.00 in
Snow Depth Not available.
UV 4 out of 12
Pollen Not available.
Air Quality Not available.
Flu Activity Not available.
METAR EGQS 281450Z 23011KT 9999 SCT033CB SCT220 08/01 Q1005 RESHGS BLU TEMPO 7000 SHGS SCT015CB WHT

More Conditions Fewer Conditions

10-Day Weather Forecast

Almanac

Astronomy

Apr. 28, 2015 Rise Set
Actual Time
Civil Twilight
Nautical Twilight
Astronomical Twilight
Moon
Length of Visible Light
Length of Day
Tomorrow will be .
, % of the Moon is Illuminated

Today's Extremes

Country Highs Country Lows

Community

WunderPhotos

Upload Photos

1,817,661 photos uploaded!

WunderBlogs® & News

Nearby

Air Quality

  Air Quality AQ Index Pollutant
Not available.

Snow Depth

Station Depth Elevation

Earthquake Activity

City Distance Mag. Time & Date
Minimum magnitude displayed is 2.5.

Coastal Water Temperatures

Place Temperature

Stations

Nearby Weather Stations

Station Location Temp. Windchill Dew Point Humidity Wind Precip. Elev Updated Type